Time;durP1;ratioP1;P1;durP2;ratioP2;P2;SDS_P1;SDS_P2;PMS_P1;PMS_P2;Temp;Humidity;BMP_temperature;BMP_pressure;BME280_temperature;BME280_humidity;BME280_pressure;Samples;Min_cycle;Max_cycle;Signal;HPM_P1;HPM_P2
2020/12/09 00:02:06;;;;;;;45.17;24.90;;;2.40;99.90;;;;;;5080283;28;20303;-76
2020/12/09 00:04:32;;;;;;;46.37;24.70;;;2.30;99.90;;;;;;5080955;28;20183;-76
2020/12/09 00:06:58;;;;;;;55.30;27.83;;;2.30;99.90;;;;;;5078304;28;20473;-76
2020/12/09 00:09:24;;;;;;;52.93;29.10;;;2.30;99.90;;;;;;5080722;28;20710;-76
2020/12/09 00:11:53;;;;;;;52.23;27.80;;;2.30;99.90;;;;;;5077833;28;20242;-76
2020/12/09 00:14:20;;;;;;;51.50;26.10;;;2.30;99.90;;;;;;5082361;28;20203;-76
2020/12/09 00:16:46;;;;;;;52.93;26.03;;;2.30;99.90;;;;;;5079704;28;20795;-76
2020/12/09 00:19:11;;;;;;;52.90;27.70;;;2.30;99.90;;;;;;5082282;28;20410;-76
2020/12/09 00:21:37;;;;;;;53.37;27.13;;;2.40;99.90;;;;;;5081804;28;20193;-76
2020/12/09 00:24:03;;;;;;;59.17;29.63;;;2.30;99.90;;;;;;5081012;28;20654;-76
2020/12/09 00:26:29;;;;;;;51.13;27.47;;;2.40;99.90;;;;;;5082804;28;20188;-76
2020/12/09 00:28:56;;;;;;;49.17;25.37;;;2.40;99.90;;;;;;5080126;28;20397;-76
2020/12/09 00:31:24;;;;;;;47.67;24.87;;;2.40;99.90;;;;;;5083358;28;20478;-76
2020/12/09 00:33:50;;;;;;;46.73;25.53;;;2.40;99.90;;;;;;5079949;28;20425;-76
2020/12/09 00:36:17;;;;;;;53.87;27.50;;;2.30;99.90;;;;;;5083023;28;20422;-76
2020/12/09 00:38:43;;;;;;;48.90;26.30;;;2.40;99.90;;;;;;5081152;28;20408;-76
2020/12/09 00:41:22;;;;;;;52.57;27.10;;;2.40;99.90;;;;;;5081706;28;20462;-76
2020/12/09 00:43:48;;;;;;;50.47;25.37;;;2.50;99.90;;;;;;5079900;28;20438;-76
2020/12/09 00:46:19;;;;;;;47.80;27.20;;;2.40;99.90;;;;;;5082486;28;20778;-76
2020/12/09 00:48:45;;;;;;;50.03;26.47;;;2.40;99.90;;;;;;5080329;28;20497;-76
2020/12/09 00:51:16;;;;;;;45.83;24.50;;;2.50;99.90;;;;;;5082125;28;20463;-76
2020/12/09 00:53:42;;;;;;;51.57;27.07;;;2.50;99.90;;;;;;5079211;28;20451;-76
2020/12/09 00:56:09;;;;;;;46.80;26.47;;;2.50;99.90;;;;;;5080324;28;20450;-76
2020/12/09 00:58:35;;;;;;;51.90;26.20;;;2.40;99.90;;;;;;5080340;28;20851;-76
2020/12/09 01:01:01;;;;;;;49.17;25.97;;;2.40;99.90;;;;;;5080222;28;20451;-76
2020/12/09 01:03:26;;;;;;;49.73;25.83;;;2.40;99.90;;;;;;5082547;28;20634;-75
2020/12/09 01:05:52;;;;;;;51.70;27.57;;;2.40;99.90;;;;;;5078311;28;20518;-76
2020/12/09 01:08:17;;;;;;;48.23;25.80;;;2.40;99.90;;;;;;5082395;28;20182;-76
2020/12/09 01:10:43;;;;;;;47.50;26.50;;;2.40;99.90;;;;;;5080286;28;20204;-76
2020/12/09 01:13:08;;;;;;;42.30;24.30;;;2.40;99.90;;;;;;5079708;28;20556;-76
2020/12/09 01:15:34;;;;;;;46.80;24.83;;;2.40;99.90;;;;;;5081521;28;20194;-76
2020/12/09 01:17:59;;;;;;;47.83;24.13;;;2.40;99.90;;;;;;5079997;28;20189;-76
2020/12/09 01:20:25;;;;;;;46.10;24.50;;;2.50;99.90;;;;;;5082571;28;20227;-76
2020/12/09 01:22:50;;;;;;;45.27;24.40;;;2.50;99.90;;;;;;5079387;28;20626;-76
2020/12/09 01:25:16;;;;;;;58.63;24.60;;;2.50;99.90;;;;;;5081865;28;20593;-76
2020/12/09 01:27:41;;;;;;;45.33;25.13;;;2.50;99.90;;;;;;5080431;28;20231;-76
2020/12/09 01:30:07;;;;;;;46.93;24.00;;;2.50;99.90;;;;;;5080648;28;20745;-76
2020/12/09 01:32:32;;;;;;;47.23;25.60;;;2.50;99.90;;;;;;5081791;28;20187;-76
2020/12/09 01:34:58;;;;;;;45.83;24.63;;;2.50;99.90;;;;;;5079333;28;20643;-76
2020/12/09 01:37:23;;;;;;;46.77;26.43;;;2.50;99.90;;;;;;5081530;28;20184;-76
2020/12/09 01:39:49;;;;;;;44.30;24.80;;;2.50;99.90;;;;;;5079097;28;20207;-76
2020/12/09 01:42:15;;;;;;;46.70;25.17;;;2.60;99.90;;;;;;5081485;28;20225;-76
2020/12/09 01:44:41;;;;;;;46.07;25.60;;;2.60;99.90;;;;;;5080005;28;20223;-76
2020/12/09 01:47:07;;;;;;;46.13;25.20;;;2.60;99.90;;;;;;5080447;28;20453;-76
2020/12/09 01:49:34;;;;;;;46.93;25.83;;;2.60;99.90;;;;;;5081366;28;20197;-76
2020/12/09 01:52:02;;;;;;;45.00;24.43;;;2.60;99.90;;;;;;5079672;28;20423;-76
2020/12/09 01:54:28;;;;;;;48.77;25.30;;;2.60;99.90;;;;;;5081771;28;20413;-76
2020/12/09 01:57:11;;;;;;;44.30;23.10;;;2.60;99.90;;;;;;5078935;28;20405;-76
2020/12/09 01:59:39;;;;;;;43.80;25.23;;;2.60;99.90;;;;;;5080584;28;20792;-76
2020/12/09 02:02:05;;;;;;;43.57;24.37;;;2.60;99.90;;;;;;5081016;28;20465;-76
2020/12/09 02:04:32;;;;;;;48.50;25.80;;;2.60;99.90;;;;;;5079457;28;20765;-76
2020/12/09 02:06:58;;;;;;;46.03;25.63;;;2.60;99.90;;;;;;5083117;28;20613;-76
2020/12/09 02:09:24;;;;;;;46.53;24.97;;;2.60;99.90;;;;;;5082675;28;20429;-76
2020/12/09 02:11:51;;;;;;;50.40;25.97;;;2.60;99.90;;;;;;5086129;28;20184;-76
2020/12/09 02:14:17;;;;;;;50.07;25.30;;;2.60;99.90;;;;;;5083053;28;21039;-76
2020/12/09 02:16:48;;;;;;;48.03;25.87;;;2.60;99.90;;;;;;5083752;28;20416;-76
2020/12/09 02:19:13;;;;;;;45.80;24.37;;;2.70;99.90;;;;;;5083350;28;20419;-76
2020/12/09 02:21:39;;;;;;;48.30;24.70;;;2.60;99.90;;;;;;5084426;28;20408;-76
2020/12/09 02:24:04;;;;;;;48.47;25.07;;;2.60;99.90;;;;;;5084360;28;20214;-75
2020/12/09 02:26:30;;;;;;;49.93;25.37;;;2.70;99.90;;;;;;5081873;28;20269;-76
2020/12/09 02:28:56;;;;;;;50.70;25.83;;;2.70;99.90;;;;;;5085942;28;20185;-76
2020/12/09 02:31:22;;;;;;;51.80;25.40;;;2.60;99.90;;;;;;5082113;28;20204;-76
2020/12/09 02:33:48;;;;;;;46.43;25.23;;;2.60;99.90;;;;;;5085347;28;20767;-75
2020/12/09 02:36:14;;;;;;;53.13;26.90;;;2.60;99.90;;;;;;5082969;28;20421;-76
2020/12/09 02:38:39;;;;;;;48.20;26.57;;;2.70;99.90;;;;;;5084282;28;20686;-76
2020/12/09 02:41:05;;;;;;;47.67;25.17;;;2.60;99.90;;;;;;5084279;28;20242;-76
2020/12/09 02:43:30;;;;;;;51.60;26.70;;;2.60;99.90;;;;;;5082547;28;20232;-76
2020/12/09 02:45:56;;;;;;;44.90;24.17;;;2.70;99.90;;;;;;5085353;28;20228;-76
2020/12/09 02:48:22;;;;;;;51.43;26.97;;;2.70;99.90;;;;;;5082053;28;20181;-76
2020/12/09 02:50:48;;;;;;;48.80;24.90;;;2.70;99.90;;;;;;5085016;28;20528;-76
2020/12/09 02:53:13;;;;;;;42.57;23.57;;;2.70;99.90;;;;;;5082420;28;20264;-75
2020/12/09 02:55:39;;;;;;;50.50;25.30;;;2.70;99.90;;;;;;5083785;28;20188;-76
2020/12/09 02:58:04;;;;;;;46.90;24.40;;;2.70;99.90;;;;;;5083876;28;20189;-76
2020/12/09 03:00:30;;;;;;;49.53;26.53;;;2.70;99.90;;;;;;5082361;28;20201;-76
2020/12/09 03:02:56;;;;;;;43.17;25.33;;;2.80;99.90;;;;;;5083984;28;20253;-76
2020/12/09 03:05:21;;;;;;;51.37;24.50;;;2.80;99.90;;;;;;5081570;28;20166;-76
2020/12/09 03:07:47;;;;;;;45.83;24.90;;;2.80;99.90;;;;;;5084549;28;20180;-76
2020/12/09 03:10:12;;;;;;;43.57;23.83;;;2.70;99.90;;;;;;5082500;28;20223;-76
2020/12/09 03:12:38;;;;;;;46.33;24.37;;;2.70;99.90;;;;;;5083441;28;20231;-76
2020/12/09 03:15:04;;;;;;;49.87;24.97;;;2.70;99.90;;;;;;5083683;28;20258;-76
2020/12/09 03:17:29;;;;;;;49.67;26.30;;;2.80;99.90;;;;;;5082419;28;20545;-76
2020/12/09 03:19:55;;;;;;;50.43;26.33;;;2.70;99.90;;;;;;5084581;28;20458;-76
2020/12/09 03:22:21;;;;;;;50.77;26.87;;;2.70;99.90;;;;;;5081094;28;20200;-77
2020/12/09 03:24:46;;;;;;;54.10;27.10;;;2.70;99.90;;;;;;5081689;28;20779;-76
2020/12/09 03:27:12;;;;;;;47.67;25.13;;;2.80;99.90;;;;;;5081192;28;20174;-76
2020/12/09 03:29:38;;;;;;;50.73;26.97;;;2.80;99.90;;;;;;5083018;28;20207;-76
2020/12/09 03:32:03;;;;;;;54.87;28.63;;;2.80;99.90;;;;;;5079620;28;20216;-76
2020/12/09 03:34:29;;;;;;;53.53;27.03;;;2.80;99.90;;;;;;5083572;28;20212;-76
2020/12/09 03:36:54;;;;;;;46.53;25.60;;;2.80;99.90;;;;;;5084563;28;20202;-76
2020/12/09 03:39:20;;;;;;;48.40;27.27;;;2.80;99.90;;;;;;5080898;28;20248;-76
2020/12/09 03:41:45;;;;;;;52.70;28.27;;;2.80;99.90;;;;;;5082790;28;20186;-76
2020/12/09 03:44:11;;;;;;;60.70;28.33;;;2.80;99.90;;;;;;5082875;28;20217;-76
2020/12/09 03:46:36;;;;;;;46.73;27.33;;;2.80;99.90;;;;;;5080911;28;20184;-76
2020/12/09 03:49:02;;;;;;;50.97;27.67;;;2.80;99.90;;;;;;5081422;28;20174;-76
2020/12/09 03:51:28;;;;;;;51.47;27.43;;;2.70;99.90;;;;;;5080951;28;20204;-77
2020/12/09 03:53:53;;;;;;;55.20;29.00;;;2.70;99.90;;;;;;5080406;28;20264;-76
2020/12/09 03:56:18;;;;;;;54.17;27.87;;;2.70;99.90;;;;;;5084207;28;20662;-76
2020/12/09 03:58:44;;;;;;;51.97;28.53;;;2.80;99.90;;;;;;5081825;28;20188;-76
2020/12/09 04:01:10;;;;;;;53.13;27.40;;;2.70;99.90;;;;;;5081296;28;20305;-76
2020/12/09 04:03:35;;;;;;;47.27;27.50;;;2.80;99.90;;;;;;5078063;28;20210;-76
2020/12/09 04:06:01;;;;;;;59.90;28.50;;;2.80;99.90;;;;;;5085296;28;20655;-77
2020/12/09 04:08:27;;;;;;;54.93;30.20;;;2.80;99.90;;;;;;5081889;28;20656;-77
2020/12/09 04:10:53;;;;;;;59.87;30.87;;;2.80;99.90;;;;;;5082900;28;20577;-76
2020/12/09 04:13:19;;;;;;;47.43;30.00;;;2.70;99.90;;;;;;5080154;28;20508;-77
2020/12/09 04:15:44;;;;;;;52.17;29.20;;;2.80;99.90;;;;;;5083382;28;20186;-77
2020/12/09 04:18:10;;;;;;;52.20;29.10;;;2.80;99.90;;;;;;5082825;28;20953;-77
2020/12/09 04:20:36;;;;;;;57.10;29.97;;;2.70;99.90;;;;;;5086467;28;20204;-77
2020/12/09 04:23:03;;;;;;;53.87;28.70;;;2.70;99.90;;;;;;5082438;28;20464;-77
2020/12/09 04:25:29;;;;;;;50.50;28.03;;;2.60;99.90;;;;;;5081101;28;20255;-77
2020/12/09 04:27:54;;;;;;;52.13;27.83;;;2.60;99.90;;;;;;5080506;28;20486;-78
2020/12/09 04:30:20;;;;;;;53.97;27.40;;;2.60;99.90;;;;;;5080624;28;20303;-77
2020/12/09 04:32:45;;;;;;;53.90;29.87;;;2.60;99.90;;;;;;5080905;28;20180;-77
2020/12/09 04:35:11;;;;;;;55.60;28.50;;;2.60;99.90;;;;;;5081711;28;20570;-77
2020/12/09 04:37:39;;;;;;;56.00;29.10;;;2.60;99.90;;;;;;5082172;28;20188;-77
2020/12/09 04:40:05;;;;;;;64.30;27.70;;;2.60;99.90;;;;;;5080032;28;20205;-77
2020/12/09 04:42:30;;;;;;;50.43;28.40;;;2.60;99.90;;;;;;5082878;28;20454;-77
2020/12/09 04:44:56;;;;;;;61.10;29.70;;;2.60;99.90;;;;;;5081740;28;20932;-77
2020/12/09 04:47:35;;;;;;;54.00;29.90;;;2.60;99.90;;;;;;5079741;28;20605;-77
2020/12/09 04:50:09;;;;;;;51.63;28.80;;;2.60;99.90;;;;;;5077604;28;20483;-77
2020/12/09 04:52:45;;;;;;;53.67;28.80;;;2.60;99.90;;;;;;5081849;28;20391;-77
2020/12/09 04:55:15;;;;;;;55.63;29.43;;;2.60;99.90;;;;;;5081080;28;20462;-77
2020/12/09 04:57:53;;;;;;;46.40;28.20;;;2.60;99.90;;;;;;5079910;28;20952;-77
2020/12/09 05:00:20;;;;;;;56.43;27.53;;;2.50;99.90;;;;;;5079617;28;20976;-77
2020/12/09 05:02:50;;;;;;;62.47;30.37;;;2.60;99.90;;;;;;5084373;28;20463;-77
2020/12/09 05:05:18;;;;;;;50.77;29.30;;;2.60;99.90;;;;;;5084448;28;20845;-77
2020/12/09 05:07:48;;;;;;;53.07;27.57;;;2.60;99.90;;;;;;5080575;28;20526;-77
2020/12/09 05:10:21;;;;;;;67.30;32.17;;;2.60;99.90;;;;;;5081773;28;20878;-77
2020/12/09 05:12:49;;;;;;;58.00;30.70;;;2.60;99.90;;;;;;5080359;28;20436;-77
2020/12/09 05:15:23;;;;;;;51.53;29.93;;;2.60;99.90;;;;;;5081727;28;20914;-77
2020/12/09 05:18:02;;;;;;;60.13;32.73;;;2.60;99.90;;;;;;5078496;28;20443;-77
2020/12/09 05:20:36;;;;;;;59.10;29.80;;;2.60;99.90;;;;;;5077574;28;20455;-77
2020/12/09 05:23:04;;;;;;;62.40;30.93;;;2.60;99.90;;;;;;5079573;28;20463;-77
2020/12/09 05:25:30;;;;;;;61.07;29.33;;;2.60;99.90;;;;;;5079552;28;20393;-77
2020/12/09 05:27:56;;;;;;;62.80;30.10;;;2.60;99.90;;;;;;5081532;28;20473;-77
2020/12/09 05:30:41;;;;;;;56.63;30.27;;;2.60;99.90;;;;;;5079903;28;20437;-77
2020/12/09 05:33:09;;;;;;;58.60;30.27;;;2.60;99.90;;;;;;5080508;28;20199;-77
2020/12/09 05:35:35;;;;;;;55.30;30.50;;;2.70;99.90;;;;;;5084077;28;20532;-77
2020/12/09 05:38:18;;;;;;;58.50;29.57;;;2.70;99.90;;;;;;5079768;28;20460;-77
2020/12/09 05:40:45;;;;;;;51.50;28.00;;;2.70;99.90;;;;;;5080896;28;20540;-77
2020/12/09 05:43:12;;;;;;;56.77;30.27;;;2.70;99.90;;;;;;5082254;28;20463;-77
2020/12/09 05:45:38;;;;;;;55.93;31.23;;;2.60;99.90;;;;;;5083982;28;20509;-77
2020/12/09 05:48:16;;;;;;;59.33;28.33;;;2.60;99.90;;;;;;5085650;28;20430;-77
2020/12/09 05:50:57;;;;;;;56.67;28.50;;;2.60;99.90;;;;;;5082813;28;20542;-77
2020/12/09 05:53:25;;;;;;;48.73;27.03;;;2.60;99.90;;;;;;5083405;28;20510;-77
2020/12/09 05:55:54;;;;;;;57.80;29.57;;;2.50;99.90;;;;;;5084393;28;20443;-77
2020/12/09 05:58:28;;;;;;;57.87;30.77;;;2.50;99.90;;;;;;5083228;28;20424;-77
2020/12/09 06:01:11;;;;;;;61.27;30.27;;;2.60;99.90;;;;;;5084705;28;20491;-77
2020/12/09 06:03:38;;;;;;;56.97;30.97;;;2.50;99.90;;;;;;5081087;28;20463;-76
2020/12/09 06:06:37;;;;;;;51.17;28.37;;;2.50;99.90;;;;;;5087096;28;20532;-77
2020/12/09 06:09:02;;;;;;;54.33;29.17;;;2.40;99.90;;;;;;5053421;28;20426;-77
2020/12/09 06:11:33;;;;;;;53.43;26.90;;;2.50;99.90;;;;;;5081807;28;21034;-77
2020/12/09 06:13:59;;;;;;;49.10;27.87;;;2.40;99.90;;;;;;5083986;28;20708;-78
2020/12/09 06:16:25;;;;;;;54.93;28.87;;;2.50;99.90;;;;;;5084993;28;20479;-77
2020/12/09 06:18:53;;;;;;;49.63;27.93;;;2.50;99.90;;;;;;5082953;28;20390;-77
2020/12/09 06:21:19;;;;;;;45.57;25.57;;;2.50;99.90;;;;;;5083921;28;20550;-77
2020/12/09 06:23:46;;;;;;;49.90;26.53;;;2.50;99.90;;;;;;5081687;28;20997;-76
2020/12/09 06:26:12;;;;;;;44.07;26.13;;;2.50;99.90;;;;;;5083650;28;20446;-77
2020/12/09 06:28:44;;;;;;;49.63;27.13;;;2.50;99.90;;;;;;5082777;28;20434;-77
2020/12/09 06:31:13;;;;;;;50.23;25.17;;;2.50;99.90;;;;;;5083837;28;20287;-77
2020/12/09 06:33:42;;;;;;;53.07;25.80;;;2.50;99.90;;;;;;5082673;28;20679;-77
2020/12/09 06:36:25;;;;;;;46.53;25.50;;;2.50;99.90;;;;;;5084359;28;20422;-77
2020/12/09 06:39:12;;;;;;;46.80;26.10;;;2.60;99.90;;;;;;5084308;28;20773;-75
2020/12/09 06:41:40;;;;;;;46.80;25.80;;;2.60;99.90;;;;;;5083935;28;20505;-75
2020/12/09 06:44:15;;;;;;;49.20;27.17;;;2.60;99.90;;;;;;5082950;28;20528;-74
2020/12/09 06:46:46;;;;;;;56.53;32.30;;;2.60;99.90;;;;;;5081791;28;20429;-75
2020/12/09 06:49:30;;;;;;;53.20;28.10;;;2.60;99.90;;;;;;5083579;28;20466;-73
2020/12/09 06:51:57;;;;;;;53.73;28.80;;;2.60;99.90;;;;;;5086305;28;20424;-74
2020/12/09 06:54:43;;;;;;;48.20;26.20;;;2.60;99.90;;;;;;5084644;28;20428;-74
2020/12/09 06:57:17;;;;;;;51.13;24.93;;;2.50;99.90;;;;;;5085715;28;20490;-74
2020/12/09 06:59:51;;;;;;;49.10;27.57;;;2.60;99.90;;;;;;5081250;28;20439;-75
2020/12/09 07:02:27;;;;;;;55.00;27.73;;;2.60;99.90;;;;;;5088889;28;20464;-75
2020/12/09 07:04:53;;;;;;;57.13;26.63;;;2.60;99.90;;;;;;5084421;28;20429;-75
2020/12/09 07:07:50;;;;;;;53.07;28.10;;;2.60;99.90;;;;;;5080412;28;20924;-75
2020/12/09 07:10:19;;;;;;;46.20;25.50;;;2.50;99.90;;;;;;5069732;28;20261;-74
2020/12/09 07:12:46;;;;;;;52.63;28.07;;;2.60;99.90;;;;;;5083692;28;20446;-74
2020/12/09 07:15:12;;;;;;;56.03;28.97;;;2.60;99.90;;;;;;5081179;28;20911;-74
2020/12/09 07:17:37;;;;;;;54.57;28.83;;;2.60;99.90;;;;;;5083239;28;20399;-74
2020/12/09 07:20:05;;;;;;;48.83;26.17;;;2.60;99.90;;;;;;5079034;28;20688;-75
2020/12/09 07:22:31;;;;;;;54.20;28.90;;;2.60;99.90;;;;;;5085390;28;20208;-74
2020/12/09 07:24:57;;;;;;;55.20;27.53;;;2.60;99.90;;;;;;5081195;28;20429;-74
2020/12/09 07:27:25;;;;;;;47.40;27.00;;;2.60;99.90;;;;;;5084799;28;20669;-75
2020/12/09 07:29:54;;;;;;;52.33;28.20;;;2.60;99.90;;;;;;5084722;28;20842;-74
2020/12/09 07:32:22;;;;;;;54.10;29.30;;;2.70;99.90;;;;;;5079452;28;20418;-74
2020/12/09 07:34:55;;;;;;;54.97;29.00;;;2.70;99.90;;;;;;5090181;28;20425;-75
2020/12/09 07:37:41;;;;;;;63.00;31.33;;;2.70;99.90;;;;;;5081083;28;20879;-74
2020/12/09 07:40:18;;;;;;;48.20;28.20;;;2.70;99.90;;;;;;5082276;28;20458;-74
2020/12/09 07:42:43;;;;;;;56.77;27.03;;;2.80;99.90;;;;;;5080138;28;20453;-74
2020/12/09 07:45:11;;;;;;;55.60;28.63;;;2.80;99.90;;;;;;5082050;28;20439;-74
2020/12/09 07:47:37;;;;;;;55.43;29.40;;;2.80;99.90;;;;;;5081284;28;20646;-74
2020/12/09 07:50:05;;;;;;;59.13;29.37;;;2.80;99.90;;;;;;5089969;28;20552;-74
2020/12/09 07:52:40;;;;;;;53.37;28.70;;;2.80;99.90;;;;;;5084820;28;20591;-74
2020/12/09 07:55:14;;;;;;;59.17;29.53;;;2.80;99.90;;;;;;5081981;28;20453;-74
2020/12/09 07:57:41;;;;;;;54.07;29.00;;;2.90;99.90;;;;;;5082742;28;20449;-74
2020/12/09 08:00:09;;;;;;;56.63;28.80;;;2.90;99.90;;;;;;5079587;28;20510;-75
2020/12/09 08:02:40;;;;;;;57.10;28.60;;;2.90;99.90;;;;;;5084963;28;20440;-75
2020/12/09 08:05:07;;;;;;;58.03;30.93;;;2.90;99.90;;;;;;5083639;28;20948;-75
2020/12/09 08:07:33;;;;;;;56.53;27.70;;;2.90;99.90;;;;;;5082139;28;20954;-74
2020/12/09 08:10:10;;;;;;;62.03;29.33;;;2.90;99.90;;;;;;5078403;28;20519;-74
2020/12/09 08:12:36;;;;;;;58.90;29.40;;;2.90;99.90;;;;;;5082971;28;20571;-74
2020/12/09 08:15:06;;;;;;;56.20;29.57;;;2.90;99.90;;;;;;5082748;28;20510;-74
2020/12/09 08:17:32;;;;;;;59.90;29.20;;;2.90;99.90;;;;;;5079927;28;20189;-74
2020/12/09 08:20:07;;;;;;;60.40;29.03;;;2.90;99.90;;;;;;5081654;28;20786;-75
2020/12/09 08:22:53;;;;;;;51.03;28.10;;;2.80;99.90;;;;;;5080864;28;20465;-74
2020/12/09 08:25:19;;;;;;;56.37;26.97;;;2.90;99.90;;;;;;5082075;28;20988;-74
2020/12/09 08:27:48;;;;;;;61.13;31.20;;;2.90;99.90;;;;;;5078515;28;20442;-74
2020/12/09 08:30:18;;;;;;;58.40;29.63;;;2.80;99.90;;;;;;5079302;28;20442;-75
2020/12/09 08:33:09;;;;;;;56.80;27.60;;;2.80;99.90;;;;;;5083682;28;20486;-74
2020/12/09 08:35:52;;;;;;;53.90;27.70;;;2.80;99.90;;;;;;5081549;28;20478;-74
2020/12/09 08:38:45;;;;;;;55.30;27.27;;;2.80;99.90;;;;;;5081596;28;20918;-75
2020/12/09 08:41:12;;;;;;;54.57;28.33;;;2.80;99.90;;;;;;5073671;28;20507;-74
2020/12/09 08:43:41;;;;;;;54.70;29.57;;;2.80;99.90;;;;;;5079179;28;20470;-75
2020/12/09 08:46:08;;;;;;;59.67;29.37;;;2.80;99.90;;;;;;5081713;28;20787;-75
2020/12/09 08:48:35;;;;;;;58.80;29.50;;;2.90;99.90;;;;;;5081233;28;20445;-74
2020/12/09 08:51:01;;;;;;;58.27;28.30;;;2.90;99.90;;;;;;5082902;28;20783;-75
2020/12/09 08:53:27;;;;;;;56.10;30.43;;;2.90;99.90;;;;;;5082820;28;20462;-74
2020/12/09 08:55:53;;;;;;;63.40;30.10;;;2.90;99.90;;;;;;5079728;28;20450;-74
2020/12/09 08:58:19;;;;;;;56.50;30.87;;;2.90;99.90;;;;;;5081243;28;20873;-74
2020/12/09 09:00:46;;;;;;;75.80;31.47;;;3.00;99.90;;;;;;5080230;28;20237;-74
2020/12/09 09:03:16;;;;;;;53.90;30.00;;;3.00;99.90;;;;;;5081601;28;20470;-74
2020/12/09 09:05:42;;;;;;;59.27;30.10;;;3.00;99.90;;;;;;5083016;28;20408;-74
2020/12/09 09:08:09;;;;;;;62.90;30.40;;;3.00;99.90;;;;;;5080990;28;20431;-74
2020/12/09 09:10:39;;;;;;;58.27;30.07;;;3.00;99.90;;;;;;5079348;28;20466;-74
2020/12/09 09:13:04;;;;;;;53.80;29.07;;;3.00;99.90;;;;;;5082013;28;20401;-74
2020/12/09 09:15:31;;;;;;;55.00;29.40;;;3.00;99.90;;;;;;5077410;28;20439;-74
2020/12/09 09:17:58;;;;;;;55.03;30.77;;;3.10;99.90;;;;;;5082235;28;20325;-74
2020/12/09 09:20:24;;;;;;;56.10;29.17;;;3.10;99.90;;;;;;5080573;28;20464;-74
2020/12/09 09:22:49;;;;;;;52.07;29.33;;;3.20;99.90;;;;;;5080097;28;20483;-75
2020/12/09 09:25:15;;;;;;;56.50;31.00;;;3.10;99.90;;;;;;5081042;28;20264;-74
2020/12/09 09:27:40;;;;;;;56.17;31.07;;;3.20;99.90;;;;;;5081110;28;20195;-75
2020/12/09 09:30:07;;;;;;;47.87;27.30;;;3.20;99.90;;;;;;5081310;28;20203;-74
2020/12/09 09:32:32;;;;;;;54.73;29.10;;;3.10;99.90;;;;;;5079877;28;20677;-74
2020/12/09 09:34:58;;;;;;;55.13;29.47;;;3.20;99.90;;;;;;5081953;28;20418;-74
2020/12/09 09:37:24;;;;;;;50.80;28.70;;;3.20;99.90;;;;;;5080668;28;20672;-74
2020/12/09 09:39:51;;;;;;;55.00;30.33;;;3.20;99.90;;;;;;5079312;28;20189;-74
2020/12/09 09:42:17;;;;;;;56.17;27.80;;;3.20;99.90;;;;;;5080588;28;20472;-74
2020/12/09 09:44:44;;;;;;;54.67;30.33;;;3.20;99.90;;;;;;5081149;28;20802;-74
2020/12/09 09:47:10;;;;;;;60.87;31.33;;;3.20;99.90;;;;;;5080979;28;20434;-74
2020/12/09 09:49:35;;;;;;;62.43;31.10;;;3.30;99.90;;;;;;5080155;28;20530;-74
2020/12/09 09:52:01;;;;;;;59.97;31.70;;;3.20;99.90;;;;;;5080933;28;20538;-74
2020/12/09 09:54:27;;;;;;;65.73;34.40;;;3.20;99.90;;;;;;5082223;28;20190;-75
2020/12/09 09:56:52;;;;;;;57.40;29.20;;;3.20;99.90;;;;;;5080419;28;20177;-75
2020/12/09 09:59:18;;;;;;;70.60;34.13;;;3.20;99.90;;;;;;5079194;28;20677;-75
2020/12/09 10:01:43;;;;;;;51.90;30.80;;;3.30;99.90;;;;;;5080233;28;20600;-74
2020/12/09 10:04:09;;;;;;;56.77;29.80;;;3.30;99.90;;;;;;5079319;28;20262;-75
2020/12/09 10:06:35;;;;;;;60.43;31.77;;;3.30;99.90;;;;;;5084524;28;20197;-74
2020/12/09 10:09:03;;;;;;;49.73;29.17;;;3.40;99.90;;;;;;5079588;28;20176;-75
2020/12/09 10:11:28;;;;;;;54.23;29.60;;;3.40;99.90;;;;;;5081843;28;20541;-74
2020/12/09 10:13:54;;;;;;;55.80;30.70;;;3.30;99.90;;;;;;5078393;28;20505;-72
2020/12/09 10:16:26;;;;;;;53.50;30.30;;;3.30;99.90;;;;;;5085309;28;20199;-74
2020/12/09 10:18:51;;;;;;;55.23;27.90;;;3.40;99.90;;;;;;5081660;28;20197;-74
2020/12/09 10:21:32;;;;;;;53.70;29.83;;;3.30;99.90;;;;;;5084911;28;20441;-74
2020/12/09 10:23:58;;;;;;;54.37;28.50;;;3.30;99.90;;;;;;5077354;28;20351;-73
2020/12/09 10:26:36;;;;;;;58.43;31.03;;;3.30;99.90;;;;;;5081226;28;20406;-75
2020/12/09 10:29:03;;;;;;;51.33;28.60;;;3.40;99.90;;;;;;5082703;28;20431;-74
2020/12/09 10:31:39;;;;;;;53.57;29.30;;;3.40;99.90;;;;;;5082799;28;20420;-74
2020/12/09 10:34:06;;;;;;;55.17;30.70;;;3.30;99.90;;;;;;5082956;28;20430;-74
2020/12/09 10:36:32;;;;;;;48.10;27.27;;;3.40;99.90;;;;;;5084896;28;20522;-74
2020/12/09 10:38:58;;;;;;;61.30;29.93;;;3.40;99.90;;;;;;5082277;28;20432;-75
2020/12/09 10:41:24;;;;;;;53.30;28.23;;;3.40;99.90;;;;;;5081543;28;20462;-74
2020/12/09 10:43:50;;;;;;;61.13;29.30;;;3.40;99.90;;;;;;5085212;28;20239;-75
2020/12/09 10:46:16;;;;;;;52.07;28.37;;;3.40;99.90;;;;;;5081829;28;20190;-75
2020/12/09 10:48:43;;;;;;;59.50;30.80;;;3.40;99.90;;;;;;5084262;28;20503;-74
2020/12/09 10:51:08;;;;;;;53.93;29.07;;;3.40;99.90;;;;;;5080110;28;20205;-74
2020/12/09 10:53:34;;;;;;;54.33;29.87;;;3.40;99.90;;;;;;5084502;28;20862;-75
2020/12/09 10:55:59;;;;;;;52.73;30.33;;;3.40;99.90;;;;;;5084750;28;20211;-74
2020/12/09 10:58:28;;;;;;;53.73;29.20;;;3.40;99.90;;;;;;5078992;28;20223;-74
2020/12/09 11:00:54;;;;;;;53.10;30.00;;;3.40;99.90;;;;;;5082107;28;20209;-74
2020/12/09 11:03:20;;;;;;;59.97;30.90;;;3.40;99.90;;;;;;5086060;28;20476;-72
2020/12/09 11:05:46;;;;;;;64.47;30.63;;;3.40;99.90;;;;;;5084595;28;20413;-74
2020/12/09 11:08:12;;;;;;;57.47;30.60;;;3.40;99.90;;;;;;5084192;28;20440;-74
2020/12/09 11:10:38;;;;;;;52.57;28.10;;;3.40;99.90;;;;;;5083688;28;20597;-74
2020/12/09 11:13:04;;;;;;;52.53;29.67;;;3.40;99.90;;;;;;5084617;28;20517;-74
2020/12/09 11:15:29;;;;;;;58.93;31.13;;;3.40;99.90;;;;;;5082016;28;20208;-74
2020/12/09 11:17:55;;;;;;;54.13;30.90;;;3.30;99.90;;;;;;5083824;28;20191;-74
2020/12/09 11:20:20;;;;;;;58.60;29.67;;;3.30;99.90;;;;;;5083429;28;20212;-74
2020/12/09 11:22:46;;;;;;;63.43;30.10;;;3.30;99.90;;;;;;5084178;28;20216;-74
2020/12/09 11:25:11;;;;;;;51.40;28.00;;;3.30;99.90;;;;;;5083308;28;20182;-74
2020/12/09 11:27:37;;;;;;;58.20;30.53;;;3.30;99.90;;;;;;5084130;28;20190;-73
2020/12/09 11:30:04;;;;;;;57.13;29.43;;;3.30;99.90;;;;;;5084980;28;20220;-72
2020/12/09 11:32:33;;;;;;;47.63;28.37;;;3.40;99.90;;;;;;5081593;28;20185;-75
2020/12/09 11:34:59;;;;;;;61.07;30.80;;;3.40;99.90;;;;;;5082199;28;20438;-74
2020/12/09 11:37:25;;;;;;;67.07;31.00;;;3.40;99.90;;;;;;5085032;28;20946;-75
2020/12/09 11:39:50;;;;;;;60.03;31.00;;;3.40;99.90;;;;;;5083195;28;20211;-74
2020/12/09 11:42:16;;;;;;;57.13;31.03;;;3.50;99.90;;;;;;5081724;28;20632;-74
2020/12/09 11:44:41;;;;;;;58.27;29.87;;;3.40;99.90;;;;;;5082429;28;20193;-74
2020/12/09 11:47:07;;;;;;;61.60;30.17;;;3.40;99.90;;;;;;5083860;28;20176;-74
2020/12/09 11:49:32;;;;;;;50.90;28.60;;;3.40;99.90;;;;;;5083953;28;20269;-74
2020/12/09 11:51:58;;;;;;;54.43;29.13;;;3.40;99.90;;;;;;5082761;28;20195;-73
2020/12/09 11:54:23;;;;;;;52.83;28.57;;;3.40;99.90;;;;;;5083207;28;20895;-75
2020/12/09 11:56:49;;;;;;;56.90;27.97;;;3.30;99.90;;;;;;5083416;28;20638;-73
2020/12/09 11:59:14;;;;;;;46.23;26.50;;;3.30;99.90;;;;;;5082521;28;20645;-74
2020/12/09 12:01:40;;;;;;;54.87;28.10;;;3.30;99.90;;;;;;5082382;28;20196;-75
2020/12/09 12:04:05;;;;;;;53.00;27.17;;;3.30;99.90;;;;;;5082570;28;20212;-72
2020/12/09 12:06:31;;;;;;;52.40;28.00;;;3.30;99.90;;;;;;5080416;28;20188;-74
2020/12/09 12:08:58;;;;;;;59.40;27.70;;;3.30;99.90;;;;;;5081985;28;20180;-74
2020/12/09 12:11:24;;;;;;;52.57;27.37;;;3.40;99.90;;;;;;5080505;28;20685;-73
2020/12/09 12:13:50;;;;;;;47.23;26.40;;;3.30;99.90;;;;;;5082213;28;20438;-73
2020/12/09 12:16:18;;;;;;;53.23;27.67;;;3.30;99.90;;;;;;5081722;28;20449;-74
2020/12/09 12:18:44;;;;;;;48.97;25.23;;;3.30;99.90;;;;;;5082762;28;20402;-74
2020/12/09 12:21:11;;;;;;;51.57;26.83;;;3.20;99.90;;;;;;5080235;28;20479;-74
2020/12/09 12:23:37;;;;;;;53.40;25.20;;;3.20;99.90;;;;;;5082546;28;20207;-74
2020/12/09 12:26:03;;;;;;;53.00;25.40;;;3.20;99.90;;;;;;5080916;28;20415;-74
2020/12/09 12:28:28;;;;;;;52.17;25.47;;;3.20;99.90;;;;;;5082391;28;20224;-74
2020/12/09 12:30:54;;;;;;;53.00;26.83;;;3.10;99.90;;;;;;5082307;28;20192;-73
2020/12/09 12:33:20;;;;;;;53.50;23.70;;;3.10;99.90;;;;;;5081124;28;20196;-74
2020/12/09 12:35:45;;;;;;;51.13;25.70;;;3.10;99.90;;;;;;5081964;28;20944;-73
2020/12/09 12:38:11;;;;;;;50.30;27.17;;;3.20;99.90;;;;;;5081003;28;20306;-74
2020/12/09 12:40:36;;;;;;;50.87;25.40;;;3.20;99.90;;;;;;5080747;28;20199;-73